Time;durP1;ratioP1;P1;durP2;ratioP2;P2;SDS_P1;SDS_P2;PMS_P1;PMS_P2;Temp;Humidity;BMP_temperature;BMP_pressure;BME280_temperature;BME280_humidity;BME280_pressure;Samples;Min_cycle;Max_cycle;Signal;HPM_P1;HPM_P2
2021/05/29 00:02:15;;;;;;;3.70;1.90;;;;;;;31.88;19.31;94555.16;5056184;28;20071;-55
2021/05/29 00:04:42;;;;;;;2.28;2.03;;;;;;;31.21;19.54;94549.09;5056575;28;20048;-57
2021/05/29 00:07:10;;;;;;;2.63;2.00;;;;;;;31.75;19.07;94559.69;5056656;28;20056;-58
2021/05/29 00:09:38;;;;;;;3.03;1.85;;;;;;;32.01;19.06;94562.59;5056629;28;20116;-59
2021/05/29 00:12:07;;;;;;;2.55;2.00;;;;;;;31.15;19.68;94547.28;5055298;28;20045;-57
2021/05/29 00:14:36;;;;;;;2.20;1.90;;;;;;;31.64;19.25;94556.41;5056705;28;20045;-57
2021/05/29 00:17:05;;;;;;;2.65;1.90;;;;;;;31.90;18.65;94558.19;5055796;28;20382;-57
2021/05/29 00:19:33;;;;;;;2.70;1.88;;;;;;;31.63;18.95;94549.47;5056192;28;20051;-60
2021/05/29 00:22:00;;;;;;;3.05;1.90;;;;;;;31.43;19.42;94546.00;5055960;28;20079;-59
2021/05/29 00:24:27;;;;;;;3.45;2.13;;;;;;;31.44;19.51;94559.09;5056359;28;20049;-57
2021/05/29 00:26:54;;;;;;;2.65;2.00;;;;;;;32.82;18.11;94543.81;5056341;28;20060;-62
2021/05/29 00:29:21;;;;;;;3.70;2.30;;;;;;;32.07;19.01;94547.44;5055644;28;20041;-57
2021/05/29 00:31:48;;;;;;;4.03;2.10;;;;;;;31.29;19.58;94553.22;5055905;28;20041;-57
2021/05/29 00:34:16;;;;;;;2.50;1.90;;;;;;;31.73;18.83;94537.69;5055039;28;20049;-56
2021/05/29 00:36:43;;;;;;;2.33;2.13;;;;;;;31.27;19.38;94539.38;5056187;28;20049;-58
2021/05/29 00:39:10;;;;;;;3.10;2.35;;;;;;;31.80;18.88;94536.81;5055652;28;20052;-58
2021/05/29 00:41:37;;;;;;;2.30;1.80;;;;;;;31.45;19.15;94530.16;5055313;28;20048;-58
2021/05/29 00:44:05;;;;;;;2.50;2.10;;;;;;;30.87;19.93;94532.34;5055902;28;20045;-57
2021/05/29 00:46:32;;;;;;;2.45;1.85;;;;;;;31.87;18.58;94525.84;5055991;28;20052;-58
2021/05/29 00:48:59;;;;;;;2.75;2.13;;;;;;;31.38;19.42;94527.59;5055559;28;20049;-56
2021/05/29 00:51:26;;;;;;;2.20;1.60;;;;;;;31.49;19.02;94523.53;5055472;28;20487;-60
2021/05/29 00:53:54;;;;;;;4.75;2.00;;;;;;;31.65;18.78;94525.50;5055713;28;20052;-56
2021/05/29 00:56:24;;;;;;;2.42;1.88;;;;;;;31.37;19.29;94526.81;5055728;28;20048;-58
2021/05/29 00:58:51;;;;;;;4.25;1.90;;;;;;;31.16;19.74;94528.00;5054321;28;20048;-55
2021/05/29 01:01:18;;;;;;;2.15;1.88;;;;;;;30.94;19.92;94538.38;5039826;28;20041;-57
2021/05/29 01:03:45;;;;;;;2.50;1.73;;;;;;;31.08;19.66;94526.56;5055452;28;20049;-57
2021/05/29 01:06:13;;;;;;;2.33;2.00;;;;;;;30.57;20.13;94536.66;5055433;28;20052;-56
2021/05/29 01:08:40;;;;;;;2.58;1.88;;;;;;;30.77;20.07;94525.22;5055021;28;20045;-55
2021/05/29 01:11:09;;;;;;;2.53;1.70;;;;;;;31.45;19.32;94532.84;5055062;28;20045;-58
2021/05/29 01:13:38;;;;;;;3.83;1.90;;;;;;;32.11;18.79;94529.19;5055205;28;20045;-60
2021/05/29 01:18:51;;;;;;;2.53;2.00;;;;;;;29.49;21.20;94524.31;5054956;28;20052;-57
2021/05/29 01:21:18;;;;;;;2.40;2.00;;;;;;;30.95;19.81;94523.72;5055389;28;20061;-58
2021/05/29 01:23:45;;;;;;;3.05;1.80;;;;;;;31.68;19.19;94521.19;5055046;28;20044;-55
2021/05/29 01:26:12;;;;;;;2.28;2.08;;;;;;;30.95;20.08;94521.00;5055055;28;20049;-58
2021/05/29 01:28:40;;;;;;;2.95;1.90;;;;;;;31.05;19.44;94522.00;5054830;28;20048;-56
2021/05/29 01:31:08;;;;;;;3.67;2.03;;;;;;;31.33;19.31;94526.13;5055095;28;20053;-59
2021/05/29 01:33:37;;;;;;;2.08;1.83;;;;;;;30.88;19.83;94518.44;5054912;28;20368;-56
2021/05/29 01:36:10;;;;;;;3.90;2.00;;;;;;;31.35;19.21;94512.22;5054917;28;20367;-57
2021/05/29 01:38:38;;;;;;;4.57;1.88;;;;;;;30.37;20.21;94516.94;5054627;28;20044;-57
2021/05/29 01:41:11;;;;;;;2.38;1.80;;;;;;;31.48;19.11;94516.56;5054002;28;20041;-59
2021/05/29 01:43:40;;;;;;;;;;;;;;;31.18;19.47;94509.44;5055188;28;20045;-55
2021/05/29 01:46:08;;;;;;;2.13;1.83;;;;;;;30.19;20.53;94516.44;5054731;28;19920;-58
2021/05/29 01:48:43;;;;;;;3.25;1.83;;;;;;;30.67;19.84;94516.88;5054515;28;20071;-55
2021/05/29 01:51:11;;;;;;;3.63;1.90;;;;;;;30.89;19.50;94503.78;5054397;28;20048;-57
2021/05/29 01:53:39;;;;;;;3.30;1.90;;;;;;;30.54;19.92;94513.22;5053411;28;20460;-58
2021/05/29 01:56:07;;;;;;;3.03;1.80;;;;;;;31.96;18.65;94506.34;5054368;28;20041;-56
2021/05/29 01:58:37;;;;;;;2.90;1.80;;;;;;;31.38;18.84;94506.75;5054070;28;20064;-55
2021/05/29 02:01:05;;;;;;;2.22;1.85;;;;;;;30.95;19.45;94512.16;5053423;28;20055;-56
2021/05/29 02:03:32;;;;;;;2.55;1.75;;;;;;;30.67;19.98;94513.41;5054158;28;20055;-55
2021/05/29 02:05:59;;;;;;;2.85;1.90;;;;;;;31.27;18.94;94515.06;5054223;28;20047;-57
2021/05/29 02:08:27;;;;;;;2.78;1.75;;;;;;;31.34;18.98;94521.50;5053971;28;20041;-55
2021/05/29 02:10:54;;;;;;;2.00;1.75;;;;;;;32.02;18.48;94520.91;5054052;28;20048;-55
2021/05/29 02:13:23;;;;;;;2.40;2.15;;;;;;;31.15;18.92;94525.69;5041890;28;20472;-56
2021/05/29 02:15:50;;;;;;;1.90;1.63;;;;;;;32.04;17.94;94524.72;5054399;28;20049;-59
2021/05/29 02:18:18;;;;;;;2.85;1.70;;;;;;;31.56;18.55;94522.59;5053927;28;20048;-57
2021/05/29 02:20:46;;;;;;;6.25;1.80;;;;;;;32.30;17.89;94517.59;5054377;28;20052;-57
2021/05/29 02:23:25;;;;;;;2.88;1.65;;;;;;;31.85;18.42;94506.59;5053839;28;20044;-60
2021/05/29 02:25:55;;;;;;;2.03;1.70;;;;;;;30.86;19.70;94515.41;5054034;28;20564;-57
2021/05/29 02:28:23;;;;;;;2.13;1.73;;;;;;;31.37;18.77;94521.44;5053456;28;20507;-59
2021/05/29 02:30:51;;;;;;;2.92;2.00;;;;;;;31.46;18.88;94520.88;5034330;28;20460;-58
2021/05/29 02:33:20;;;;;;;5.30;2.03;;;;;;;31.34;18.85;94526.91;5035819;28;20448;-56
2021/05/29 02:35:47;;;;;;;1.70;1.48;;;;;;;31.93;18.07;94523.41;5054297;28;20045;-58
2021/05/29 02:38:14;;;;;;;2.70;1.80;;;;;;;31.06;19.48;94531.63;5047272;28;20057;-57
2021/05/29 02:40:42;;;;;;;2.47;1.67;;;;;;;30.58;19.81;94532.78;5053300;28;20045;-60
2021/05/29 02:43:09;;;;;;;2.28;1.70;;;;;;;31.79;18.69;94527.19;5035740;28;20053;-58
2021/05/29 02:45:39;;;;;;;2.60;1.80;;;;;;;31.18;19.14;94531.03;5053952;28;20635;-58
2021/05/29 02:48:12;;;;;;;2.70;1.52;;;;;;;31.11;19.28;94525.75;5054232;28;20360;-57
2021/05/29 02:50:42;;;;;;;1.90;1.70;;;;;;;30.82;19.80;94519.34;5053913;28;20472;-59
2021/05/29 02:53:11;;;;;;;2.05;1.48;;;;;;;30.27;20.02;94537.53;5057569;28;20045;-55
2021/05/29 02:55:39;;;;;;;3.28;1.50;;;;;;;30.52;19.59;94531.75;5058088;28;20052;-61
2021/05/29 02:58:07;;;;;;;2.13;1.60;;;;;;;30.77;19.49;94527.91;5057526;28;20049;-54
2021/05/29 03:00:45;;;;;;;2.10;1.65;;;;;;;30.24;20.09;94532.19;5056814;28;20359;-57
2021/05/29 03:03:13;;;;;;;3.42;1.88;;;;;;;30.82;19.48;94530.88;5057515;28;20451;-57
2021/05/29 03:05:43;;;;;;;3.85;1.75;;;;;;;30.64;19.50;94525.78;5057841;28;20056;-59
2021/05/29 03:08:14;;;;;;;3.28;1.80;;;;;;;30.27;20.11;94524.03;5057232;28;20052;-60
2021/05/29 03:10:43;;;;;;;3.75;1.65;;;;;;;30.52;19.69;94530.97;5057232;28;20048;-58
2021/05/29 03:13:10;;;;;;;2.97;1.70;;;;;;;30.43;20.01;94528.03;5057609;28;20049;-59
2021/05/29 03:15:38;;;;;;;2.10;1.80;;;;;;;30.01;20.39;94522.84;5056335;28;20424;-57
2021/05/29 03:18:06;;;;;;;3.08;1.90;;;;;;;30.45;20.04;94531.88;5057087;28;20052;-57
2021/05/29 03:20:34;;;;;;;6.07;1.67;;;;;;;30.24;19.97;94532.19;5057584;28;20436;-57
2021/05/29 03:23:02;;;;;;;3.15;1.70;;;;;;;31.14;19.64;94527.63;5057579;28;20460;-58
2021/05/29 03:25:29;;;;;;;2.97;1.65;;;;;;;31.55;18.75;94527.25;5057225;28;20060;-58
2021/05/29 03:27:56;;;;;;;2.92;1.52;;;;;;;32.34;17.53;94531.78;5043800;28;20058;-56
2021/05/29 03:30:26;;;;;;;2.90;1.60;;;;;;;31.85;18.30;94531.66;5056680;28;20111;-58
2021/05/29 03:32:55;;;;;;;1.65;1.30;;;;;;;31.62;18.54;94537.16;5056562;28;20777;-56
2021/05/29 03:35:23;;;;;;;2.97;1.50;;;;;;;31.03;19.09;94524.34;5057662;28;20048;-57
2021/05/29 03:37:51;;;;;;;3.33;1.52;;;;;;;31.43;18.39;94538.66;5057003;28;20053;-60
2021/05/29 03:40:19;;;;;;;2.58;1.60;;;;;;;31.89;18.31;94526.94;5056311;28;20452;-57
2021/05/29 03:42:46;;;;;;;3.33;1.70;;;;;;;30.72;19.35;94531.09;5039754;28;20048;-58
2021/05/29 03:45:15;;;;;;;2.65;1.55;;;;;;;30.77;19.32;94536.00;5057004;28;20041;-57
2021/05/29 03:47:44;;;;;;;1.95;1.60;;;;;;;32.44;17.46;94519.94;5037163;28;20369;-59
2021/05/29 03:50:15;;;;;;;3.97;1.50;;;;;;;31.94;18.06;94522.97;5046599;28;20052;-56
2021/05/29 03:52:42;;;;;;;2.08;1.42;;;;;;;31.96;18.08;94519.84;5035943;28;20056;-56
2021/05/29 03:55:11;;;;;;;3.53;1.60;;;;;;;31.72;18.19;94530.78;5051365;28;20049;-58
2021/05/29 03:57:38;;;;;;;2.53;1.50;;;;;;;31.78;18.18;94523.72;5030100;23;20060;-58
2021/05/29 04:00:07;;;;;;;1.65;1.33;;;;;;;32.19;17.78;94530.53;5004426;28;20117;-58
2021/05/29 04:02:42;;;;;;;2.38;1.52;;;;;;;32.38;17.49;94527.03;5036440;28;20037;-60
2021/05/29 04:05:10;;;;;;;2.75;1.55;;;;;;;31.63;18.31;94535.19;5017169;28;20057;-58
2021/05/29 04:07:39;;;;;;;2.35;1.58;;;;;;;32.08;18.03;94530.03;5021102;28;20125;-60
2021/05/29 04:10:09;;;;;;;2.40;1.63;;;;;;;32.00;18.24;94542.16;5036929;28;20072;-57
2021/05/29 04:12:36;;;;;;;3.08;1.70;;;;;;;32.60;17.73;94526.53;5036753;28;20049;-55
2021/05/29 04:15:07;;;;;;;2.75;1.83;;;;;;;31.45;19.10;94544.41;5036788;28;20053;-55
2021/05/29 04:17:34;;;;;;;2.47;1.60;;;;;;;32.62;17.81;94535.75;5036084;28;20049;-58
2021/05/29 04:20:01;;;;;;;3.03;1.80;;;;;;;32.12;18.47;94546.94;5036715;28;20053;-56
2021/05/29 04:22:28;;;;;;;5.60;2.10;;;;;;;32.12;18.54;94544.22;5036499;28;20037;-59
2021/05/29 04:24:55;;;;;;;2.90;1.73;;;;;;;32.45;18.09;94553.91;5036504;28;20057;-58
2021/05/29 04:27:23;;;;;;;4.07;1.70;;;;;;;33.22;17.54;94543.56;5035216;28;20054;-58
2021/05/29 04:29:51;;;;;;;2.97;1.70;;;;;;;31.94;18.72;94557.38;5036358;28;20074;-62
2021/05/29 04:32:18;;;;;;;3.35;1.77;;;;;;;31.95;18.88;94553.47;5036397;28;20056;-57
2021/05/29 04:34:45;;;;;;;1.90;1.65;;;;;;;32.89;18.18;94549.03;5036731;28;20053;-60
2021/05/29 04:37:17;;;;;;;2.35;1.52;;;;;;;33.23;17.31;94547.78;5029037;28;20064;-58
2021/05/29 04:39:45;;;;;;;4.72;1.77;;;;;;;32.66;17.93;94546.50;5025311;28;20050;-58
2021/05/29 04:42:13;;;;;;;2.10;1.60;;;;;;;32.67;17.90;94548.00;5025484;28;20045;-57
2021/05/29 04:44:46;;;;;;;2.75;1.60;;;;;;;33.26;17.61;94533.38;5024788;28;20050;-61
2021/05/29 04:47:13;;;;;;;2.30;1.80;;;;;;;32.91;17.63;94535.84;5024786;28;20057;-57
2021/05/29 04:49:40;;;;;;;2.10;1.63;;;;;;;32.93;17.92;94538.88;5026801;28;20057;-59
2021/05/29 04:52:07;;;;;;;3.40;1.48;;;;;;;33.01;17.32;94534.78;5025776;28;20057;-57
2021/05/29 04:54:37;;;;;;;2.10;1.70;;;;;;;32.71;17.79;94532.44;5025041;28;20380;-56
2021/05/29 04:57:04;;;;;;;2.13;1.58;;;;;;;33.25;17.47;94531.88;5023074;28;20092;-56
2021/05/29 04:59:32;;;;;;;3.05;1.67;;;;;;;33.63;17.02;94540.16;5026334;28;20049;-58
2021/05/29 05:01:59;;;;;;;4.10;1.90;;;;;;;33.65;17.17;94538.53;5024442;28;20056;-56
2021/05/29 05:04:27;;;;;;;3.17;1.70;;;;;;;32.87;18.32;94532.47;5023645;28;20108;-59
2021/05/29 05:06:54;;;;;;;3.08;1.92;;;;;;;32.03;19.12;94527.84;5017187;28;20353;-59
2021/05/29 05:09:22;;;;;;;2.33;1.70;;;;;;;31.85;19.12;94534.38;5031706;28;20049;-58
2021/05/29 05:11:50;;;;;;;1.77;1.50;;;;;;;32.44;18.61;94540.81;5035649;28;20053;-56
2021/05/29 05:14:17;;;;;;;3.00;1.63;;;;;;;33.12;18.26;94531.81;5029256;28;20050;-60
2021/05/29 05:16:44;;;;;;;2.97;1.58;;;;;;;33.16;17.90;94545.25;5015724;28;20069;-58
2021/05/29 05:19:11;;;;;;;1.85;1.52;;;;;;;32.68;17.98;94538.72;5030275;28;20073;-63
2021/05/29 05:21:38;;;;;;;3.50;1.58;;;;;;;33.09;17.60;94536.16;5023273;28;20049;-53
2021/05/29 05:24:06;;;;;;;3.88;1.67;;;;;;;33.62;17.43;94533.22;5015661;28;20364;-59
2021/05/29 05:26:33;;;;;;;2.17;1.50;;;;;;;32.95;18.23;94536.50;5021628;28;20452;-58
2021/05/29 05:29:01;;;;;;;2.50;1.80;;;;;;;33.02;18.01;94541.72;5025851;28;20491;-48
2021/05/29 05:31:28;;;;;;;1.92;1.42;;;;;;;33.63;17.30;94530.06;5015672;28;20058;-52
2021/05/29 05:33:56;;;;;;;3.72;1.80;;;;;;;33.91;17.43;94538.59;5023850;28;20053;-48
2021/05/29 05:36:23;;;;;;;3.00;1.50;;;;;;;34.06;16.95;94539.69;5035359;28;20440;-73
2021/05/29 05:38:52;;;;;;;2.13;1.63;;;;;;;34.11;17.06;94541.88;5034768;28;20056;-58
2021/05/29 05:41:19;;;;;;;3.50;1.55;;;;;;;34.50;17.33;94539.94;5034983;28;20057;-60
2021/05/29 05:43:49;;;;;;;5.63;1.92;;;;;;;34.52;17.39;94551.09;5034373;28;20048;-77
2021/05/29 05:46:16;;;;;;;4.60;1.48;;;;;;;33.84;17.63;94538.81;5030592;28;20387;-76
2021/05/29 05:48:44;;;;;;;3.10;1.60;;;;;;;33.70;17.71;94539.94;5041011;28;20492;-78
2021/05/29 05:51:11;;;;;;;2.38;1.50;;;;;;;33.44;17.69;94538.34;5035289;28;20049;-77
2021/05/29 05:53:38;;;;;;;2.65;1.52;;;;;;;34.00;17.08;94542.19;5034987;28;20052;-77
2021/05/29 05:56:06;;;;;;;3.67;1.40;;;;;;;33.66;16.91;94534.63;5022466;28;20065;-64
2021/05/29 05:58:36;;;;;;;4.20;1.40;;;;;;;34.52;16.08;94538.28;5034896;28;20056;-69
2021/05/29 06:01:05;;;;;;;2.55;1.75;;;;;;;33.72;17.68;94534.84;5035142;28;20045;-77
2021/05/29 06:03:33;;;;;;;2.85;1.15;;;;;;;34.29;17.03;94533.19;5034058;28;20079;-77
2021/05/29 06:06:00;;;;;;;3.80;1.33;;;;;;;34.36;16.93;94534.97;5034788;28;20057;-77
2021/05/29 06:08:27;;;;;;;2.15;1.48;;;;;;;34.73;17.05;94531.41;5034477;28;20053;-77
2021/05/29 06:10:54;;;;;;;1.48;1.20;;;;;;;35.07;16.33;94532.66;5035219;28;20128;-68
2021/05/29 06:21:42;;;;;;;1.83;1.23;;;;;;;35.07;16.02;94529.94;5034756;28;20467;-76
2021/05/29 06:24:09;;;;;;;2.00;1.27;;;;;;;34.97;16.20;94533.78;5034853;28;20042;-77
2021/05/29 06:26:36;;;;;;;3.03;1.40;;;;;;;35.75;15.89;94528.34;5033937;28;20053;-77
2021/05/29 06:29:04;;;;;;;4.20;2.03;;;;;;;35.73;15.52;94522.59;5034297;28;20045;-60
2021/05/29 06:31:32;;;;;;;3.70;2.00;;;;;;;35.92;15.48;94529.69;5034843;28;20056;-76
2021/05/29 06:33:59;;;;;;;7.72;2.05;;;;;;;35.78;15.72;94525.47;5034559;28;20364;-75
2021/05/29 06:36:27;;;;;;;4.88;1.63;;;;;;;36.41;15.58;94529.72;5034524;28;20045;-75
2021/05/29 06:38:54;;;;;;;3.47;1.45;;;;;;;36.32;14.81;94523.50;5034292;28;20045;-68
2021/05/29 06:41:23;;;;;;;3.33;1.33;;;;;;;35.75;15.47;94514.75;5034641;28;20046;-75
2021/05/29 06:43:51;;;;;;;1.70;1.17;;;;;;;36.66;14.91;94515.13;5030467;28;20054;-67
2021/05/29 06:46:18;;;;;;;1.75;1.35;;;;;;;35.78;15.58;94520.03;5017981;28;20046;-76
2021/05/29 06:48:46;;;;;;;2.65;1.30;;;;;;;36.08;15.31;94513.09;5034027;28;20053;-52
2021/05/29 06:51:35;;;;;;;8.90;6.95;;;;;;;36.30;14.70;94512.28;5034604;28;20464;-75
2021/05/29 06:59:52;;;;;;;4.30;3.63;;;;;;;36.97;15.30;94517.03;5012432;28;20042;-61
2021/05/29 07:02:19;;;;;;;6.35;3.90;;;;;;;36.63;15.28;94513.31;5025800;28;20052;-76
2021/05/29 07:04:47;;;;;;;2.83;2.03;;;;;;;37.15;14.74;94508.84;5034459;28;20053;-77
2021/05/29 07:07:14;;;;;;;4.85;2.50;;;;;;;37.55;14.13;94505.19;5034394;28;20045;-77
2021/05/29 07:09:41;;;;;;;2.60;2.20;;;;;;;36.47;15.30;94508.13;5034414;28;20057;-77
2021/05/29 07:12:09;;;;;;;3.03;1.80;;;;;;;36.79;14.80;94509.59;5033453;28;20050;-77
2021/05/29 07:14:37;;;;;;;6.20;2.03;;;;;;;36.66;15.15;94504.22;5032908;28;20049;-63
2021/05/29 07:17:06;;;;;;;49.80;37.33;;;;;;;36.98;15.07;94515.81;5034111;28;20049;-54
2021/05/29 07:19:33;;;;;;;16.45;13.02;;;;;;;37.08;15.25;94517.31;5022502;28;20060;-77
2021/05/29 07:22:01;;;;;;;9.90;7.05;;;;;;;37.52;14.14;94506.13;5019602;28;20046;-74
2021/05/29 07:24:29;;;;;;;8.55;6.80;;;;;;;37.86;13.69;94516.66;5032922;28;20364;-78
2021/05/29 07:26:57;;;;;;;5.30;4.43;;;;;;;37.45;14.13;94511.88;5033358;28;20050;-77
2021/05/29 07:29:24;;;;;;;5.68;3.70;;;;;;;37.39;14.50;94522.63;5034088;28;20060;-59
2021/05/29 07:31:52;;;;;;;4.85;3.10;;;;;;;37.25;14.56;94509.63;5033775;28;20052;-61
2021/05/29 07:34:19;;;;;;;4.30;2.20;;;;;;;37.51;14.69;94507.34;5033853;28;20058;-77
2021/05/29 07:36:46;;;;;;;4.05;2.88;;;;;;;37.39;14.37;94506.28;5034401;28;20052;-76
2021/05/29 07:39:13;;;;;;;6.90;3.70;;;;;;;37.26;14.72;94506.44;5037538;28;20049;-61
2021/05/29 07:41:41;;;;;;;8.10;3.53;;;;;;;37.77;14.32;94505.78;5037361;28;20050;-78
2021/05/29 07:44:08;;;;;;;7.68;5.20;;;;;;;37.55;14.50;94499.75;5037451;28;20057;-72
2021/05/29 07:46:36;;;;;;;5.50;1.85;;;;;;;38.29;13.32;94498.34;5037645;28;20064;-69
2021/05/29 07:49:05;;;;;;;1.80;1.60;;;;;;;37.95;13.81;94488.59;5037612;28;20399;-50
2021/05/29 07:51:36;;;;;;;4.00;1.50;;;;;;;37.64;13.97;94486.09;5037275;28;20049;-77
2021/05/29 07:54:07;;;;;;;1.98;1.40;;;;;;;37.86;13.45;94485.91;5035967;28;20384;-70
2021/05/29 07:56:34;;;;;;;;;;;;;;;38.33;13.86;94488.00;5037021;28;20069;-54
2021/05/29 07:59:12;;;;;;;2.78;1.30;;;;;;;38.37;13.71;94483.13;5018689;28;19918;-77
2021/05/29 08:01:39;;;;;;;2.50;1.40;;;;;;;38.38;13.86;94479.19;5018440;28;20369;-77
2021/05/29 08:04:06;;;;;;;10.30;8.98;;;;;;;37.85;14.07;94474.25;5037011;28;20052;-77
2021/05/29 08:06:36;;;;;;;6.20;3.90;;;;;;;37.99;13.95;94478.25;5037069;28;20061;-76
2021/05/29 08:09:06;;;;;;;7.13;6.10;;;;;;;38.06;14.01;94477.19;5037207;28;20045;-75
2021/05/29 08:11:35;;;;;;;5.80;3.40;;;;;;;37.72;13.90;94470.94;5036870;28;20483;-76
2021/05/29 08:14:04;;;;;;;4.15;2.60;;;;;;;37.79;14.31;94470.63;5036742;28;20052;-76
2021/05/29 08:16:31;;;;;;;5.63;2.38;;;;;;;37.62;14.19;94466.69;5036925;28;20088;-77
2021/05/29 08:18:59;;;;;;;2.53;2.08;;;;;;;37.94;14.13;94468.75;5036963;28;20452;-78
2021/05/29 08:21:27;;;;;;;2.25;1.50;;;;;;;38.11;13.99;94473.84;5036975;28;20068;-77
2021/05/29 08:23:54;;;;;;;1.95;1.50;;;;;;;37.52;14.20;94473.41;5036355;28;20037;-76
2021/05/29 08:26:22;;;;;;;1.90;1.30;;;;;;;37.65;14.49;94463.06;5036014;28;20057;-77
2021/05/29 08:28:51;;;;;;;2.53;1.55;;;;;;;37.95;13.32;94462.06;5035602;28;20483;-76
2021/05/29 08:31:18;;;;;;;2.83;1.40;;;;;;;38.58;13.52;94466.94;5036743;28;20053;-77
2021/05/29 08:33:45;;;;;;;2.75;1.40;;;;;;;38.02;13.65;94466.44;5035982;28;20383;-76
2021/05/29 08:36:12;;;;;;;3.40;1.20;;;;;;;37.41;14.50;94467.66;5036550;28;20368;-75
2021/05/29 08:38:40;;;;;;;2.75;1.40;;;;;;;38.12;14.37;94464.44;5036346;28;20041;-77
2021/05/29 08:41:07;;;;;;;2.78;1.30;;;;;;;38.60;14.57;94470.72;5036593;28;20399;-75
2021/05/29 08:43:35;;;;;;;3.00;1.27;;;;;;;39.00;13.64;94464.81;5035027;28;20037;-70
2021/05/29 08:46:03;;;;;;;2.85;1.10;;;;;;;38.81;13.20;94468.94;5051783;28;20364;-77
2021/05/29 08:48:30;;;;;;;1.73;0.90;;;;;;;38.86;13.38;94466.31;5036440;28;20052;-66
2021/05/29 08:51:13;;;;;;;2.80;1.05;;;;;;;38.59;12.87;94462.97;5036397;28;20057;-77
2021/05/29 08:53:46;;;;;;;2.10;1.15;;;;;;;38.24;13.95;94455.28;5035492;28;20049;-77
2021/05/29 08:56:14;;;;;;;4.57;3.30;;;;;;;38.14;13.41;94457.28;5035360;28;20056;-73
2021/05/29 08:58:41;;;;;;;8.00;3.78;;;;;;;38.60;13.24;94459.03;5036346;28;20049;-77
2021/05/29 09:01:09;;;;;;;1.75;1.40;;;;;;;38.35;13.81;94450.09;5036114;28;20057;-76
2021/05/29 09:03:50;;;;;;;2.55;1.42;;;;;;;38.84;13.19;94451.59;5035621;28;20046;-76
2021/05/29 09:06:29;;;;;;;3.08;1.58;;;;;;;38.86;13.74;94455.38;5036036;28;20065;-76
2021/05/29 09:09:05;;;;;;;2.38;1.40;;;;;;;39.14;13.45;94450.47;5036091;28;20052;-76
2021/05/29 09:11:57;;;;;;;2.33;1.30;;;;;;;38.66;13.98;94451.72;5036082;28;20064;-75
2021/05/29 09:14:24;;;;;;;2.33;1.70;;;;;;;39.00;14.16;94442.94;5035658;28;20045;-52
2021/05/29 09:17:20;;;;;;;2.28;1.52;;;;;;;39.44;13.39;94442.28;5035686;28;20044;-78
2021/05/29 09:20:03;;;;;;;2.30;1.55;;;;;;;38.85;13.29;94439.44;5035716;28;20056;-76
2021/05/29 09:22:39;;;;;;;3.75;1.60;;;;;;;38.88;13.36;94435.78;5035487;28;20045;-76
2021/05/29 09:25:19;;;;;;;2.67;1.50;;;;;;;38.70;13.39;94431.22;5035514;28;20053;-73
2021/05/29 09:27:59;;;;;;;2.88;1.98;;;;;;;38.81;13.51;94431.44;5034072;28;20056;-69
2021/05/29 09:30:50;;;;;;;4.78;4.00;;;;;;;38.74;13.84;94431.03;5035614;28;20479;-75
2021/05/29 09:33:25;;;;;;;4.18;1.90;;;;;;;38.61;14.19;94425.03;5035136;28;20064;-77
2021/05/29 09:35:59;;;;;;;3.30;2.60;;;;;;;39.13;12.97;94421.63;5034111;28;20045;-76
2021/05/29 09:38:44;;;;;;;3.15;2.03;;;;;;;38.56;12.96;94423.72;5035629;28;20057;-71
2021/05/29 09:41:22;;;;;;;4.07;2.17;;;;;;;38.37;13.01;94423.06;5035442;28;20052;-76
2021/05/29 09:44:05;;;;;;;3.78;1.83;;;;;;;38.60;13.05;94420.81;5033710;28;20060;-76
2021/05/29 09:46:53;;;;;;;2.92;1.65;;;;;;;38.56;13.29;94424.47;5035324;28;20052;-75
2021/05/29 09:49:21;;;;;;;1.70;1.30;;;;;;;39.30;11.91;94415.66;5035352;28;20050;-73
2021/05/29 09:51:48;;;;;;;2.00;1.60;;;;;;;39.34;12.85;94410.78;5019892;28;20076;-75
2021/05/29 09:54:15;;;;;;;2.15;1.30;;;;;;;38.90;12.97;94406.00;5033703;28;20045;-60
2021/05/29 09:56:45;;;;;;;4.40;1.25;;;;;;;39.05;13.00;94401.34;5034989;28;20053;-73
2021/05/29 09:59:13;;;;;;;3.33;2.08;;;;;;;39.64;12.45;94400.63;5035151;28;20045;-75
2021/05/29 10:01:53;;;;;;;2.58;1.40;;;;;;;39.08;13.09;94408.63;5034697;28;20049;-55
2021/05/29 10:04:26;;;;;;;2.30;1.20;;;;;;;38.73;13.49;94404.94;5034502;28;20041;-55
2021/05/29 10:06:56;;;;;;;2.75;1.27;;;;;;;38.70;13.34;94403.13;5034989;28;20049;-57
2021/05/29 10:09:23;;;;;;;2.25;1.15;;;;;;;38.97;12.92;94397.44;5034983;28;20060;-76
2021/05/29 10:11:51;;;;;;;3.63;1.52;;;;;;;38.93;12.72;94405.06;5034904;28;20049;-77
2021/05/29 10:14:20;;;;;;;1.40;1.00;;;;;;;38.83;12.56;94390.75;5034253;28;20498;-75
2021/05/29 10:16:50;;;;;;;1.85;1.10;;;;;;;38.40;13.62;94388.63;5034695;28;20053;-62
2021/05/29 10:19:21;;;;;;;2.47;1.20;;;;;;;38.84;13.39;94391.50;5034860;28;20045;-75
2021/05/29 10:21:49;;;;;;;;;;;;;;;38.61;13.46;94395.00;5035075;28;20057;-76
2021/05/29 10:24:17;;;;;;;4.32;1.40;;;;;;;39.01;12.74;94395.28;5034334;28;20102;-70
2021/05/29 10:26:45;;;;;;;1.98;1.10;;;;;;;38.93;12.77;94390.66;5034022;28;20412;-70
2021/05/29 10:29:12;;;;;;;1.83;1.10;;;;;;;38.46;12.85;94394.94;5033594;28;20443;-75
2021/05/29 10:31:40;;;;;;;1.70;0.95;;;;;;;38.53;12.72;94384.44;5033502;28;20076;-70
2021/05/29 10:34:09;;;;;;;5.03;3.40;;;;;;;37.90;13.99;94391.78;5034026;28;20049;-72
2021/05/29 10:36:43;;;;;;;9.02;8.05;;;;;;;38.98;13.30;94390.00;5034479;28;20057;-76
2021/05/29 10:39:22;;;;;;;4.90;3.88;;;;;;;39.09;12.59;94385.53;5034578;28;20440;-74
2021/05/29 10:41:53;;;;;;;4.18;2.22;;;;;;;38.37;12.85;94398.50;5034361;28;20064;-73
2021/05/29 10:44:42;;;;;;;2.83;1.70;;;;;;;38.50;12.11;94382.63;5034117;28;20041;-75
2021/05/29 10:47:20;;;;;;;2.00;1.55;;;;;;;38.76;12.86;94395.81;5034375;28;20057;-74
2021/05/29 10:49:48;;;;;;;2.38;1.23;;;;;;;38.96;13.19;94395.94;5034318;28;20045;-75
2021/05/29 10:52:30;;;;;;;1.85;1.30;;;;;;;38.27;12.98;94380.69;5034317;28;20107;-74
2021/05/29 10:55:09;;;;;;;2.55;1.30;;;;;;;38.52;13.12;94388.41;5034004;28;20045;-64
2021/05/29 10:57:53;;;;;;;2.00;1.08;;;;;;;37.97;13.19;94387.94;5033880;28;20136;-74
2021/05/29 11:00:35;;;;;;;3.00;1.55;;;;;;;38.23;13.45;94383.56;5034346;28;20056;-76
2021/05/29 11:03:18;;;;;;;1.35;1.00;;;;;;;38.68;13.26;94375.53;5034168;28;20053;-75
2021/05/29 11:05:49;;;;;;;1.60;1.17;;;;;;;38.10;13.48;94379.53;5033823;28;20042;-71
2021/05/29 11:08:54;;;;;;;1.88;1.00;;;;;;;37.82;13.94;94381.66;5034412;28;20049;-69
2021/05/29 11:11:42;;;;;;;2.22;1.30;;;;;;;38.24;12.93;94381.59;5034356;28;20045;-58
2021/05/29 11:14:30;;;;;;;1.38;0.98;;;;;;;38.47;13.38;94380.81;5037031;28;20365;-75
2021/05/29 11:16:58;;;;;;;1.73;1.10;;;;;;;38.24;13.54;94376.13;5038018;28;20052;-66
2021/05/29 11:19:31;;;;;;;1.63;1.20;;;;;;;38.31;13.43;94378.53;5038157;28;20057;-61
2021/05/29 11:22:14;;;;;;;1.92;1.00;;;;;;;38.91;12.79;94373.97;5037934;28;20748;-71
2021/05/29 11:24:59;;;;;;;1.88;1.08;;;;;;;39.04;12.88;94377.97;5026912;28;20049;-74
2021/05/29 11:27:34;;;;;;;3.53;1.00;;;;;;;39.52;12.67;94372.31;5037552;28;20064;-57
2021/05/29 11:30:32;;;;;;;2.47;1.10;;;;;;;39.28;12.75;94375.13;5037736;28;20057;-75
2021/05/29 11:33:12;;;;;;;1.65;1.00;;;;;;;38.76;12.73;94373.94;5037578;28;20076;-75
2021/05/29 11:35:50;;;;;;;3.63;1.48;;;;;;;38.01;13.27;94376.88;5037222;28;20057;-75
2021/05/29 11:38:25;;;;;;;1.38;1.00;;;;;;;38.52;13.59;94369.28;5037652;28;20369;-62
2021/05/29 11:40:54;;;;;;;1.95;1.35;;;;;;;38.86;12.65;94367.19;5037717;28;20045;-75
2021/05/29 11:43:33;;;;;;;2.20;1.50;;;;;;;38.79;12.96;94370.31;5037358;28;20080;-75
2021/05/29 11:46:02;;;;;;;2.15;1.45;;;;;;;38.47;13.67;94353.53;5037031;28;20048;-75
2021/05/29 11:48:35;;;;;;;1.83;1.20;;;;;;;38.91;13.53;94358.34;5037547;28;20053;-74
2021/05/29 11:51:15;;;;;;;2.30;1.05;;;;;;;39.65;12.80;94350.91;5036625;28;20045;-76
2021/05/29 11:53:56;;;;;;;4.55;1.35;;;;;;;39.13;13.23;94352.53;5036946;28;20464;-76
2021/05/29 11:56:35;;;;;;;3.47;1.38;;;;;;;39.04;13.47;94349.88;5049993;28;20061;-75
2021/05/29 11:59:05;;;;;;;2.38;1.40;;;;;;;39.81;13.34;94351.59;5037575;28;20372;-76
2021/05/29 12:01:35;;;;;;;2.33;1.10;;;;;;;38.90;13.47;94345.16;5036625;28;20317;-74
2021/05/29 12:04:07;;;;;;;1.98;1.35;;;;;;;39.76;12.67;94342.09;5037046;28;20054;-76
2021/05/29 12:06:35;;;;;;;1.88;1.30;;;;;;;38.95;13.36;94347.97;5037468;28;20074;-76